Meteo Giornale » Osservazioni meteo Russia » Omsk
ore: 01:00 - Osservazioni Meteo Omsk
Lat. 54° 58' N Lon. 73° 18' E Alt. 122 metri s.l.m.
7 °C
Nuvoloso
Temp. 24 Ore
0 °C
15 °C
Ovest
14.4 Km/h
Dew point 5 °C
Umidità 87 %
Visibilità 10 Km
Il sole sorge alle ore 06:13
Il sole tramonta alle ore 20:00
| Data e Ora | Cielo e Fenomeni | T °C | DP °C | Um. % | Pres. hPa | Vis. km | Vento km/h | |
|---|---|---|---|---|---|---|---|---|
| Oggi h: 01:00 | Nuvoloso | 7 | 5 | 87 | 1012 | 10 | O 14.4 | |
| Oggi h: 00:30 | Nuvoloso | 8 | 5 | 81 | 1012 | 10 | O/SO 14.4 | |
| Oggi h: 00:00 | Nuvoloso | 8 | 5 | 81 | 1011 | 10 | O/SO 14.4 | |
| Ieri h: 23:30 | Nuvoloso | 7 | 5 | 87 | 1011 | 10 | O/SO 10.8 | |
| Ieri h: 23:00 | Nuvoloso | 7 | 5 | 87 | 1012 | 10 | O/SO 10.8 | |
| Ieri h: 22:30 | Nuvoloso | 7 | 5 | 87 | 1012 | 10 | O 10.8 | |
| Ieri h: 22:00 | Pioggia | 8 | 5 | 81 | 1012 | 10 | O/SO 14.4 | |
| Ieri h: 21:30 | Pioggia | 8 | 5 | 81 | 1012 | 9 | O/SO 21.6 | |
| Ieri h: 21:00 | Molto Nuvoloso | 10 | 3 | 61 | 1012 | 10 | O/NO 21.6 | |
| Ieri h: 20:30 | Molto Nuvoloso | 11 | 2 | 53 | 1011 | 10 | NO 14.4 | |
| Ieri h: 20:21 | Molto Nuvoloso | 11 | 2 | 53 | 1011 | 10 | O/NO 18 | |
| Ieri h: 20:00 | Molto Nuvoloso | 12 | 0 | 43 | 1011 | 10 | O/SO 14.4 | |
| Ieri h: 19:30 | Molto Nuvoloso | 12 | 0 | 43 | 1011 | 10 | O/SO 18 | |
| Ieri h: 19:00 | Molto Nuvoloso | 13 | -1 | 37 | 1011 | 10 | O/SO 18 | |
| Ieri h: 18:30 | Nuvoloso | 13 | -2 | 35 | 1011 | 10 | O/SO 25.2 | |
| Ieri h: 18:00 | Nuvoloso | 13 | -1 | 37 | 1011 | 10 | O 25.2 | |
| Ieri h: 17:30 | Nuvoloso | 13 | -1 | 37 | 1011 | 10 | O 25.2 | |
| Ieri h: 17:05 | Nuvoloso | 14 | -2 | 32 | 1011 | 10 | O 28.8 | |
| Ieri h: 17:00 | Nuvoloso | 13 | -1 | 37 | 1011 | 10 | O 25.2 | |
| Ieri h: 16:30 | Nuvoloso | 13 | -2 | 35 | 1011 | 10 | O 28.8 | |
| Ieri h: 16:00 | Nuvoloso | 14 | -4 | 28 | 1011 | 10 | O 36 | |
| Ieri h: 15:30 | Nuvoloso | 14 | -3 | 30 | 1011 | 10 | O 32.4 | |
| Ieri h: 15:00 | Nuvoloso | 14 | -3 | 30 | 1011 | 10 | O 32.4 | |
| Ieri h: 14:30 | Nuvoloso | 14 | -2 | 32 | 1011 | 10 | O/SO 36 | |
| Ieri h: 14:23 | Nuvoloso | 15 | -3 | 28 | 1012 | 10 | O/SO 28.8 | |
| Ieri h: 14:00 | Molto Nuvoloso | 13 | -2 | 35 | 1012 | 10 | O 28.8 | |
| Ieri h: 13:30 | Molto Nuvoloso | 15 | -1 | 33 | 1012 | 10 | O 21.6 | |
| Ieri h: 13:00 | Molto Nuvoloso | 13 | -2 | 35 | 1012 | 10 | O 25.2 | |
| Ieri h: 12:30 | Molto Nuvoloso | 13 | -2 | 35 | 1012 | 10 | O 25.2 | |
| Ieri h: 12:00 | Molto Nuvoloso | 13 | -1 | 37 | 1013 | 10 | O 25.2 | |
| Ieri h: 11:30 | Molto Nuvoloso | 13 | -1 | 37 | 1013 | 10 | O 28.8 | |
| Ieri h: 11:00 | Molto Nuvoloso | 13 | 1 | 43 | 1013 | 10 | O 25.2 | |
| Ieri h: 10:30 | Sereno | 12 | 2 | 50 | 1013 | 10 | O 21.6 | |
| Ieri h: 10:00 | Sereno | 11 | 3 | 57 | 1013 | 10 | O/SO 18 | |
| Ieri h: 09:30 | Sereno | 9 | 3 | 66 | 1013 | 10 | O/SO 14.4 | |
| Ieri h: 09:00 | Sereno | 8 | 3 | 70 | 1013 | 10 | O 18 | |
| Ieri h: 08:30 | Sereno | 7 | 3 | 75 | 1013 | 10 | O 18 | |
| Ieri h: 08:00 | Sereno | 5 | 3 | 86 | 1013 | 10 | O 14.4 | |
| Ieri h: 07:30 | Sereno | 3 | 2 | 93 | 1013 | 10 | N 7.2 | |
| Ieri h: 07:00 | Nuvoloso | 1 | 0 | 93 | 1013 | 10 | O 10.8 | |
| Ieri h: 06:30 | Nuvoloso | 0 | -1 | 92 | 1013 | 10 | O/SO 10.8 | |
| Ieri h: 06:00 | Nuvoloso | 2 | 0 | 86 | 1013 | 10 | O 10.8 | |
| Ieri h: 05:30 | Nuvoloso | 2 | 1 | 93 | 1013 | 10 | O 10.8 | |
| Ieri h: 05:00 | Nuvoloso | 3 | 1 | 86 | 1013 | 10 | O 14.4 | |
| Ieri h: 04:30 | Nuvoloso | 2 | 0 | 86 | 1013 | 10 | O 10.8 | |
| Ieri h: 04:00 | Nuvoloso | 1 | 0 | 93 | 1013 | 10 | O 10.8 | |
| Ieri h: 03:30 | Nuvoloso | 4 | 2 | 86 | 1012 | 10 | O 14.4 | |
| Ieri h: 03:00 | Nuvoloso | 4 | 2 | 86 | 1012 | 10 | O 14.4 | |
| Ieri h: 02:30 | Sereno | 4 | 2 | 86 | 1012 | 10 | O/NO 18 | |
| Ieri h: 02:00 | Sereno | 4 | 2 | 86 | 1012 | 10 | O 18 | |



